createdAt,value
2022-09-28T00:02:21.110Z,2.37
2022-09-28T00:04:47.991Z,2.33
2022-09-28T00:07:15.097Z,2.30
2022-09-28T00:09:41.825Z,2.30
2022-09-28T00:12:08.646Z,2.00
2022-09-28T00:14:35.426Z,2.60
2022-09-28T00:17:02.088Z,3.30
2022-09-28T00:19:28.855Z,2.60
2022-09-28T00:21:55.569Z,2.60
2022-09-28T00:24:27.352Z,2.77
2022-09-28T00:26:56.755Z,2.63
2022-09-28T00:29:32.091Z,2.80
2022-09-28T00:32:04.875Z,2.50
2022-09-28T00:34:37.255Z,2.70
2022-09-28T00:37:05.279Z,2.50
2022-09-28T00:39:31.967Z,3.00
2022-09-28T00:41:59.087Z,3.50
2022-09-28T00:44:25.657Z,2.93
2022-09-28T00:47:07.684Z,3.10
2022-09-28T00:49:44.574Z,2.93
2022-09-28T00:52:16.118Z,3.00
2022-09-28T00:54:43.931Z,3.47
2022-09-28T00:57:11.130Z,3.20
2022-09-28T00:59:38.004Z,3.00
2022-09-28T01:02:04.932Z,2.83
2022-09-28T01:04:31.735Z,2.93
2022-09-28T01:06:59.272Z,2.90
2022-09-28T01:09:27.531Z,3.10
2022-09-28T01:11:55.285Z,3.20
2022-09-28T01:14:24.711Z,3.60
2022-09-28T01:17:04.964Z,3.40
2022-09-28T01:19:40.017Z,3.70
2022-09-28T01:22:19.233Z,3.60
2022-09-28T01:24:47.130Z,3.37
2022-09-28T01:27:19.764Z,3.70
2022-09-28T01:30:04.847Z,3.03
2022-09-28T01:32:31.683Z,3.47
2022-09-28T01:35:11.949Z,3.50
2022-09-28T01:37:47.721Z,3.30
2022-09-28T01:40:16.081Z,3.43
2022-09-28T01:42:44.495Z,3.30
2022-09-28T01:45:17.086Z,2.90
2022-09-28T01:47:46.136Z,2.90
2022-09-28T01:50:23.369Z,3.10
2022-09-28T01:52:59.549Z,3.07
2022-09-28T01:55:34.005Z,2.63
2022-09-28T01:58:12.873Z,3.27
2022-09-28T02:00:42.941Z,2.77
2022-09-28T02:03:16.915Z,3.10
2022-09-28T02:05:58.252Z,3.20
2022-09-28T02:08:33.679Z,2.80
2022-09-28T02:11:06.547Z,3.13
2022-09-28T02:13:35.904Z,3.30
2022-09-28T02:16:31.405Z,2.97
2022-09-28T02:18:58.414Z,2.90
2022-09-28T02:21:40.055Z,3.40
2022-09-28T02:24:21.724Z,3.00
2022-09-28T02:26:50.681Z,3.20
2022-09-28T02:29:17.454Z,2.87
2022-09-28T02:31:44.374Z,3.00
2022-09-28T02:34:11.273Z,2.77
2022-09-28T02:36:38.267Z,3.00
2022-09-28T02:39:05.326Z,2.77
2022-09-28T02:42:10.597Z,2.67
2022-09-28T02:44:52.084Z,2.80
2022-09-28T02:47:26.001Z,2.70
2022-09-28T02:50:13.140Z,2.93
2022-09-28T02:53:02.026Z,2.57
2022-09-28T02:55:50.437Z,2.93
2022-09-28T02:58:47.922Z,3.03
2022-09-28T03:01:33.058Z,2.90
2022-09-28T03:04:44.561Z,3.03
2022-09-28T03:07:27.888Z,2.60
2022-09-28T03:10:10.073Z,2.40
2022-09-28T03:12:37.439Z,2.87
2022-09-28T03:15:13.837Z,2.40
2022-09-28T03:17:41.464Z,2.43
2022-09-28T03:20:10.657Z,2.53
2022-09-28T03:22:38.094Z,2.50
2022-09-28T03:25:06.516Z,2.27
2022-09-28T03:27:34.194Z,2.20
2022-09-28T03:30:01.590Z,2.57
2022-09-28T03:32:28.859Z,1.97
2022-09-28T03:34:55.991Z,2.10
2022-09-28T03:37:23.087Z,1.83
2022-09-28T03:39:49.962Z,2.13
2022-09-28T03:42:16.737Z,1.90
2022-09-28T03:44:47.743Z,2.70
2022-09-28T03:47:15.937Z,1.87
2022-09-28T03:49:42.663Z,1.63
2022-09-28T03:52:10.191Z,1.97
2022-09-28T03:54:37.636Z,1.67
2022-09-28T03:57:05.304Z,1.97
2022-09-28T03:59:32.034Z,2.17
2022-09-28T04:01:59.059Z,1.93
2022-09-28T04:04:25.718Z,1.60
2022-09-28T04:06:52.706Z,1.90
2022-09-28T04:09:19.796Z,1.60
2022-09-28T04:12:02.895Z,1.60
2022-09-28T04:14:30.624Z,1.50
2022-09-28T04:16:57.451Z,1.50
2022-09-28T04:19:26.779Z,2.10
2022-09-28T04:22:11.790Z,1.33
2022-09-28T04:24:39.223Z,1.10
2022-09-28T04:27:25.245Z,1.10
2022-09-28T04:29:52.020Z,1.40
2022-09-28T04:32:18.819Z,1.40
2022-09-28T04:34:45.484Z,1.43
2022-09-28T04:37:12.145Z,1.50
2022-09-28T04:39:42.298Z,1.60
2022-09-28T04:42:12.302Z,1.37
2022-09-28T04:44:39.247Z,1.73
2022-09-28T04:47:08.950Z,1.53
2022-09-28T04:49:54.195Z,1.70
2022-09-28T04:52:27.821Z,1.70
2022-09-28T04:54:54.550Z,1.63
2022-09-28T04:57:21.541Z,1.70
2022-09-28T04:59:50.596Z,1.80
2022-09-28T05:02:18.323Z,2.00
2022-09-28T05:05:05.756Z,1.70
2022-09-28T05:10:41.004Z,1.67
2022-09-28T05:13:08.976Z,1.70
2022-09-28T05:15:36.467Z,1.70
2022-09-28T05:18:03.967Z,1.90
2022-09-28T05:20:42.310Z,1.70
2022-09-28T05:23:11.441Z,1.67
2022-09-28T05:25:39.770Z,1.87
2022-09-28T05:31:05.348Z,1.63
2022-09-28T05:33:55.382Z,1.87
2022-09-28T05:36:26.787Z,1.70
2022-09-28T05:38:53.920Z,1.40
2022-09-28T05:41:20.628Z,1.80
2022-09-28T05:43:47.469Z,1.67
2022-09-28T05:46:14.686Z,1.17
2022-09-28T05:48:41.900Z,1.60
2022-09-28T05:51:10.393Z,1.40
2022-09-28T05:53:37.299Z,1.70
2022-09-28T05:56:04.881Z,1.60
2022-09-28T05:58:33.216Z,1.53
2022-09-28T06:01:00.164Z,1.60
2022-09-28T06:03:27.200Z,1.50
2022-09-28T06:05:54.253Z,1.20
2022-09-28T06:08:21.889Z,1.47
2022-09-28T06:11:00.749Z,3.30
2022-09-28T06:13:30.171Z,1.80
2022-09-28T06:15:57.005Z,1.13
2022-09-28T06:18:23.878Z,1.70
2022-09-28T06:21:13.002Z,1.50
2022-09-28T06:23:48.964Z,2.17
2022-09-28T06:26:17.687Z,1.80
2022-09-28T06:28:45.185Z,1.60
2022-09-28T06:31:12.174Z,1.57
2022-09-28T06:33:48.609Z,1.87
2022-09-28T06:36:15.509Z,2.03
2022-09-28T06:38:42.350Z,2.33
2022-09-28T06:41:10.829Z,2.60
2022-09-28T06:43:39.718Z,2.37
2022-09-28T06:46:13.560Z,3.30
2022-09-28T06:49:00.686Z,2.73
2022-09-28T06:51:46.352Z,3.40
2022-09-28T06:54:25.727Z,3.10
2022-09-28T06:57:08.010Z,3.37
2022-09-28T06:59:34.904Z,3.40
2022-09-28T07:02:01.825Z,3.67
2022-09-28T07:04:47.279Z,3.93
2022-09-28T07:07:33.064Z,4.20
2022-09-28T07:10:30.308Z,4.20
2022-09-28T07:13:47.968Z,4.70
2022-09-28T07:16:09.095Z,4.50
2022-09-28T07:18:35.999Z,4.97
2022-09-28T07:21:04.167Z,4.53
2022-09-28T07:23:32.394Z,4.40
2022-09-28T07:26:33.228Z,4.83
2022-09-28T07:28:59.927Z,4.10
2022-09-28T07:31:34.628Z,4.73
2022-09-28T07:34:23.152Z,4.33
2022-09-28T07:37:12.516Z,3.00
2022-09-28T07:39:58.525Z,3.60
2022-09-28T07:42:30.045Z,2.93
2022-09-28T07:44:58.124Z,2.70
2022-09-28T07:47:34.650Z,2.50
2022-09-28T07:50:21.230Z,2.67
2022-09-28T07:53:13.859Z,2.60
2022-09-28T07:56:07.144Z,2.73
2022-09-28T07:58:40.856Z,2.70
2022-09-28T08:01:26.279Z,3.13
2022-09-28T08:03:56.629Z,2.60
2022-09-28T08:06:23.966Z,2.93
2022-09-28T08:08:52.893Z,3.13
2022-09-28T08:11:21.401Z,2.50
2022-09-28T08:14:27.112Z,3.00
2022-09-28T08:17:02.113Z,2.70
2022-09-28T08:20:13.174Z,2.90
2022-09-28T08:22:40.389Z,2.57
2022-09-28T08:25:07.570Z,2.50
2022-09-28T08:27:34.664Z,2.07
2022-09-28T08:30:01.880Z,2.60
2022-09-28T08:33:07.828Z,2.33
2022-09-28T08:35:44.006Z,2.53
2022-09-28T08:38:15.323Z,2.40
2022-09-28T08:41:58.768Z,2.33
2022-09-28T08:44:48.653Z,2.40
2022-09-28T08:47:48.614Z,2.70
2022-09-28T08:50:33.454Z,2.73
2022-09-28T08:53:54.220Z,2.70
2022-09-28T08:56:31.874Z,2.60
2022-09-28T08:59:03.153Z,2.80
2022-09-28T09:01:40.360Z,2.37
2022-09-28T09:04:11.273Z,2.50
2022-09-28T09:07:20.031Z,2.30
2022-09-28T09:09:57.264Z,2.97
2022-09-28T09:12:36.919Z,2.20
2022-09-28T09:15:13.335Z,2.73
2022-09-28T09:18:08.726Z,2.27
2022-09-28T09:21:15.660Z,2.17
2022-09-28T09:23:55.415Z,2.23
2022-09-28T09:26:40.524Z,3.23
2022-09-28T09:29:22.964Z,1.97
2022-09-28T09:32:11.454Z,2.07
2022-09-28T09:34:53.212Z,1.80
2022-09-28T09:37:54.160Z,2.57
2022-09-28T09:41:16.598Z,1.90
2022-09-28T09:44:28.063Z,2.37
2022-09-28T09:47:34.469Z,2.30
2022-09-28T09:50:29.854Z,2.23
2022-09-28T09:52:59.127Z,2.57
2022-09-28T09:55:30.470Z,2.17
2022-09-28T09:58:32.044Z,2.23
2022-09-28T10:01:13.422Z,1.73
2022-09-28T10:04:00.799Z,1.60
2022-09-28T10:06:33.784Z,1.70
2022-09-28T10:09:13.136Z,2.10
2022-09-28T10:11:45.211Z,1.73
2022-09-28T10:14:16.731Z,1.20
2022-09-28T10:16:51.156Z,1.37
2022-09-28T10:19:37.815Z,1.33
2022-09-28T10:22:25.150Z,1.70
2022-09-28T10:24:57.524Z,1.87
2022-09-28T10:27:28.782Z,1.40
2022-09-28T10:30:09.317Z,1.57
2022-09-28T10:32:47.731Z,1.57
2022-09-28T10:35:31.300Z,1.73
2022-09-28T10:38:06.340Z,1.47
2022-09-28T10:40:59.502Z,1.30
2022-09-28T10:43:39.734Z,1.50
2022-09-28T10:46:13.689Z,1.23
2022-09-28T10:48:54.357Z,1.00
2022-09-28T10:51:41.738Z,1.27
2022-09-28T10:54:22.898Z,1.67
2022-09-28T10:56:52.745Z,1.30
2022-09-28T10:59:30.727Z,1.30
2022-09-28T11:02:21.723Z,1.17
2022-09-28T11:04:53.670Z,1.10
2022-09-28T11:07:26.761Z,1.23
2022-09-28T11:09:54.817Z,1.27
2022-09-28T11:12:23.898Z,1.13
2022-09-28T11:14:57.560Z,1.20
2022-09-28T11:17:30.365Z,1.30
2022-09-28T11:19:59.745Z,0.90
2022-09-28T11:22:30.194Z,0.90
2022-09-28T11:25:20.855Z,0.90
2022-09-28T11:27:51.450Z,0.40
2022-09-28T11:30:54.107Z,0.77
2022-09-28T11:33:33.084Z,0.50
2022-09-28T11:36:31.825Z,0.60
2022-09-28T11:39:11.991Z,0.53
2022-09-28T11:42:07.925Z,0.60
2022-09-28T11:44:41.424Z,0.60
2022-09-28T11:47:49.044Z,1.90
2022-09-28T11:50:25.796Z,1.40
2022-09-28T11:53:17.925Z,0.90
2022-09-28T11:56:09.049Z,0.70
2022-09-28T11:58:45.998Z,0.70
2022-09-28T12:01:24.103Z,1.87
2022-09-28T12:04:36.954Z,0.80
2022-09-28T12:07:10.116Z,1.00
2022-09-28T12:09:49.830Z,1.20
2022-09-28T12:12:28.422Z,1.13
2022-09-28T12:15:13.213Z,1.03
2022-09-28T12:17:45.446Z,1.37
2022-09-28T12:20:30.981Z,0.87
2022-09-28T12:23:21.311Z,1.20
2022-09-28T12:25:59.754Z,1.10
2022-09-28T12:28:40.288Z,1.23
2022-09-28T12:31:37.669Z,1.57
2022-09-28T12:34:04.484Z,1.30
2022-09-28T12:36:42.957Z,1.07
2022-09-28T12:39:24.266Z,1.30
2022-09-28T12:42:05.133Z,1.30
2022-09-28T12:44:43.963Z,1.23
2022-09-28T12:47:31.991Z,1.23
2022-09-28T12:50:37.526Z,1.10
2022-09-28T12:53:29.709Z,1.37
2022-09-28T12:56:11.851Z,1.20
2022-09-28T12:58:59.928Z,1.03
2022-09-28T13:01:44.183Z,1.13
2022-09-28T13:04:13.337Z,0.70
2022-09-28T13:06:49.938Z,0.97
2022-09-28T13:09:20.959Z,1.27
2022-09-28T13:12:17.528Z,1.60
2022-09-28T13:14:58.059Z,1.27
2022-09-28T13:17:29.813Z,1.20
2022-09-28T13:20:08.926Z,1.13
2022-09-28T13:23:04.973Z,1.20
2022-09-28T13:25:34.296Z,1.13
2022-09-28T13:28:05.582Z,1.30
2022-09-28T13:30:35.382Z,1.00
2022-09-28T13:33:04.253Z,1.00
2022-09-28T13:35:32.074Z,1.17
2022-09-28T13:38:25.524Z,0.80
2022-09-28T13:41:04.712Z,1.17
2022-09-28T13:43:50.099Z,0.90
2022-09-28T13:46:19.948Z,0.90
2022-09-28T13:49:06.520Z,1.50
2022-09-28T13:51:59.873Z,1.53
2022-09-28T13:54:54.787Z,1.03
2022-09-28T13:57:30.235Z,0.93
2022-09-28T14:00:07.272Z,1.00
2022-09-28T14:02:43.787Z,1.00
2022-09-28T14:05:32.092Z,1.03
2022-09-28T14:08:17.544Z,1.00
2022-09-28T14:10:54.311Z,1.20
2022-09-28T14:13:59.436Z,0.90
2022-09-28T14:16:31.919Z,0.93
2022-09-28T14:19:03.203Z,1.00
2022-09-28T14:21:33.011Z,1.10
2022-09-28T14:24:27.490Z,0.57
2022-09-28T14:27:04.024Z,1.07
2022-09-28T14:29:32.916Z,0.60
2022-09-28T14:32:10.587Z,1.67
2022-09-28T14:34:38.492Z,1.60
2022-09-28T14:37:47.094Z,1.43
2022-09-28T14:40:49.409Z,1.33
2022-09-28T14:43:27.131Z,1.50
2022-09-28T14:46:12.400Z,1.27
2022-09-28T14:48:54.524Z,2.00
2022-09-28T14:51:27.235Z,2.50
2022-09-28T14:53:56.894Z,2.10
2022-09-28T14:56:24.151Z,1.70
2022-09-28T14:58:55.360Z,1.60
2022-09-28T15:01:30.609Z,1.20
2022-09-28T15:04:04.672Z,1.60
2022-09-28T15:06:46.061Z,1.60
2022-09-28T15:09:28.581Z,1.40
2022-09-28T15:12:04.426Z,1.17
2022-09-28T15:14:33.462Z,1.33
2022-09-28T15:17:03.531Z,1.50
2022-09-28T15:19:38.643Z,1.20
2022-09-28T15:22:15.006Z,1.40
2022-09-28T15:24:46.445Z,1.40
2022-09-28T15:27:19.328Z,1.30
2022-09-28T15:30:02.944Z,1.33
2022-09-28T15:32:33.215Z,1.00
2022-09-28T15:35:14.567Z,1.40
2022-09-28T15:37:42.175Z,1.20
2022-09-28T15:40:14.435Z,1.20
2022-09-28T15:42:41.190Z,0.97
2022-09-28T15:45:14.040Z,1.20
2022-09-28T15:47:43.603Z,1.07
2022-09-28T15:50:25.182Z,1.10
2022-09-28T15:52:58.008Z,1.43
2022-09-28T15:55:32.581Z,1.23
2022-09-28T15:58:19.240Z,1.30
2022-09-28T16:00:47.486Z,1.40
2022-09-28T16:03:17.172Z,1.40
2022-09-28T16:05:47.113Z,1.30
2022-09-28T16:08:21.357Z,1.43
2022-09-28T16:10:56.719Z,1.40
2022-09-28T16:13:24.382Z,1.47
2022-09-28T16:15:58.181Z,1.63
2022-09-28T16:18:26.281Z,1.73
2022-09-28T16:20:57.249Z,1.37
2022-09-28T16:23:27.494Z,1.43
2022-09-28T16:25:58.790Z,1.67
2022-09-28T16:28:35.195Z,1.50
2022-09-28T16:31:27.229Z,1.50
2022-09-28T16:33:58.936Z,2.00
2022-09-28T16:36:29.707Z,1.30
2022-09-28T16:38:56.783Z,1.23
2022-09-28T16:41:26.681Z,2.10
2022-09-28T16:43:59.207Z,1.90
2022-09-28T16:46:31.692Z,1.50
2022-09-28T16:49:02.478Z,1.43
2022-09-28T16:51:29.446Z,1.30
2022-09-28T16:54:32.729Z,1.60
2022-09-28T16:57:00.832Z,1.50
2022-09-28T16:59:28.486Z,1.50
2022-09-28T17:01:56.669Z,1.57
2022-09-28T17:04:24.487Z,1.80
2022-09-28T17:06:53.693Z,1.83
2022-09-28T17:09:21.549Z,1.97
2022-09-28T17:11:48.466Z,1.60
2022-09-28T17:14:15.188Z,1.63
2022-09-28T17:19:29.872Z,1.33
2022-09-28T17:21:56.527Z,1.20
2022-09-28T17:24:24.388Z,1.30
2022-09-28T17:26:52.109Z,1.57
2022-09-28T17:29:19.133Z,1.37
2022-09-28T17:31:46.732Z,1.13
2022-09-28T17:34:16.269Z,1.63
2022-09-28T17:36:43.910Z,2.00
2022-09-28T17:39:15.922Z,1.53
2022-09-28T17:41:43.092Z,2.10
2022-09-28T17:44:10.122Z,2.40
2022-09-28T17:46:39.459Z,2.43
2022-09-28T17:49:07.965Z,2.30
2022-09-28T17:51:37.908Z,2.83
2022-09-28T17:54:06.084Z,2.30
2022-09-28T17:56:33.122Z,2.10
2022-09-28T17:59:03.287Z,2.23
2022-09-28T18:01:34.305Z,2.27
2022-09-28T18:04:03.290Z,2.40
2022-09-28T18:06:30.168Z,2.53
2022-09-28T18:08:56.864Z,2.50
2022-09-28T18:11:23.579Z,2.20
2022-09-28T18:13:50.485Z,2.30
2022-09-28T18:16:17.478Z,2.83
2022-09-28T18:18:47.754Z,2.93
2022-09-28T18:21:14.910Z,2.20
2022-09-28T18:23:41.773Z,2.37
2022-09-28T18:26:12.588Z,2.17
2022-09-28T18:28:39.778Z,2.20
2022-09-28T18:31:11.042Z,2.33
2022-09-28T18:33:38.025Z,2.77
2022-09-28T18:36:05.919Z,2.87
2022-09-28T18:38:35.239Z,3.53
2022-09-28T18:41:09.219Z,3.27
2022-09-28T18:43:37.177Z,2.83
2022-09-28T18:46:09.382Z,3.30
2022-09-28T18:48:37.614Z,3.17
2022-09-28T18:51:08.987Z,2.83
2022-09-28T18:53:37.196Z,2.70
2022-09-28T18:56:12.374Z,2.90
2022-09-28T18:58:40.913Z,2.60
2022-09-28T19:04:00.455Z,2.57
2022-09-28T19:06:27.855Z,2.50
2022-09-28T19:08:58.548Z,2.73
2022-09-28T19:11:25.993Z,2.90
2022-09-28T19:13:53.778Z,2.40
2022-09-28T19:16:25.136Z,2.47
2022-09-28T19:18:53.579Z,3.93
2022-09-28T19:21:21.220Z,4.60
2022-09-28T19:23:52.050Z,5.07
2022-09-28T19:26:21.345Z,5.20
2022-09-28T19:28:48.546Z,4.07
2022-09-28T19:31:16.117Z,4.37
2022-09-28T19:33:46.875Z,3.67
2022-09-28T19:36:23.652Z,4.13
2022-09-28T19:38:51.929Z,4.77
2022-09-28T19:41:42.689Z,4.07
2022-09-28T19:44:27.802Z,3.90
2022-09-28T19:47:07.138Z,4.03
2022-09-28T19:49:38.154Z,3.73
2022-09-28T19:52:14.182Z,4.13
2022-09-28T19:55:04.659Z,3.80
2022-09-28T19:57:32.643Z,3.63
2022-09-28T20:00:03.191Z,4.07
2022-09-28T20:02:34.696Z,3.87
2022-09-28T20:05:01.493Z,4.00
2022-09-28T20:07:32.659Z,3.93
2022-09-28T20:09:59.388Z,3.93
2022-09-28T20:12:26.517Z,3.70
2022-09-28T20:14:53.342Z,3.63
2022-09-28T20:17:21.654Z,4.00
2022-09-28T20:19:48.658Z,4.17
2022-09-28T20:22:16.918Z,4.27
2022-09-28T20:24:43.718Z,4.10
2022-09-28T20:27:10.378Z,4.37
2022-09-28T20:29:37.085Z,4.50
2022-09-28T20:32:04.169Z,3.80
2022-09-28T20:34:30.927Z,4.40
2022-09-28T20:36:57.750Z,4.73
2022-09-28T20:39:25.337Z,4.57
2022-09-28T20:41:52.132Z,4.87
2022-09-28T20:44:19.193Z,4.40
2022-09-28T20:46:49.977Z,4.30
2022-09-28T20:49:16.743Z,4.60
2022-09-28T20:51:43.542Z,4.53
2022-09-28T20:54:10.473Z,4.57
2022-09-28T20:56:39.832Z,4.73
2022-09-28T20:59:12.555Z,5.27
2022-09-28T21:01:40.372Z,6.10
2022-09-28T21:04:08.717Z,6.37
2022-09-28T21:06:45.445Z,5.10
2022-09-28T21:09:24.043Z,5.23
2022-09-28T21:11:56.816Z,5.33
2022-09-28T21:14:23.801Z,5.00
2022-09-28T21:16:50.838Z,5.03
2022-09-28T21:19:17.751Z,5.13
2022-09-28T21:21:44.784Z,5.40
2022-09-28T21:24:11.572Z,5.17
2022-09-28T21:26:39.306Z,5.13
2022-09-28T21:29:10.910Z,5.07
2022-09-28T21:31:42.688Z,5.20
2022-09-28T21:34:13.474Z,4.83
2022-09-28T21:36:43.531Z,5.93
2022-09-28T21:39:10.699Z,5.37
2022-09-28T21:41:37.893Z,5.73
2022-09-28T21:44:05.802Z,5.00
2022-09-28T21:46:56.185Z,5.10
2022-09-28T21:49:23.009Z,5.40
2022-09-28T21:51:49.909Z,5.60
2022-09-28T21:54:16.644Z,5.30
2022-09-28T21:56:43.513Z,4.60
2022-09-28T21:59:10.586Z,5.17
2022-09-28T22:01:39.422Z,4.50
2022-09-28T22:04:06.303Z,4.50
2022-09-28T22:06:33.110Z,4.90
2022-09-28T22:08:59.981Z,4.73
2022-09-28T22:11:28.801Z,4.80
2022-09-28T22:14:05.890Z,5.33
2022-09-28T22:16:38.999Z,5.00
2022-09-28T22:19:08.007Z,5.30
2022-09-28T22:21:36.014Z,4.67
2022-09-28T22:24:06.810Z,5.30
2022-09-28T22:26:36.269Z,4.50
2022-09-28T22:29:09.545Z,4.90
2022-09-28T22:31:39.430Z,4.93
2022-09-28T22:34:07.024Z,4.93
2022-09-28T22:36:34.097Z,4.97
2022-09-28T22:39:01.807Z,4.40
2022-09-28T22:41:28.558Z,4.93
2022-09-28T22:43:55.257Z,4.60
2022-09-28T22:46:26.437Z,4.47
2022-09-28T22:48:57.928Z,4.60
2022-09-28T22:51:27.189Z,4.80
2022-09-28T22:53:54.182Z,4.60
2022-09-28T22:56:20.834Z,5.07
2022-09-28T22:58:48.368Z,4.37
2022-09-28T23:01:26.668Z,5.03
2022-09-28T23:03:54.893Z,4.13
2022-09-28T23:06:24.348Z,4.30
2022-09-28T23:08:51.447Z,4.70
2022-09-28T23:11:18.688Z,4.20
2022-09-28T23:13:56.666Z,4.43
2022-09-28T23:16:25.803Z,4.30
2022-09-28T23:18:53.913Z,4.60
2022-09-28T23:21:23.174Z,4.13
2022-09-28T23:23:55.501Z,4.53
2022-09-28T23:26:24.737Z,4.53
2022-09-28T23:28:52.706Z,4.70
2022-09-28T23:31:38.917Z,4.53
2022-09-28T23:34:06.674Z,4.80
2022-09-28T23:36:33.863Z,4.60
2022-09-28T23:39:01.199Z,4.40
2022-09-28T23:41:27.978Z,4.30
2022-09-28T23:43:54.771Z,4.77
2022-09-28T23:46:21.553Z,4.53
2022-09-28T23:48:49.339Z,4.47
2022-09-28T23:51:16.058Z,4.63
2022-09-28T23:53:46.117Z,4.43
2022-09-28T23:56:14.422Z,4.90
2022-09-28T23:58:41.330Z,4.43
